sensor_id;sensor_type;location;lat;lon;timestamp;temperature;humidity
52621;DHT22;38515;53.160;6.990;2023-11-19T00:00:45;10.20;99.90
52621;DHT22;38515;53.160;6.990;2023-11-19T00:03:11;10.30;99.90
52621;DHT22;38515;53.160;6.990;2023-11-19T00:05:39;10.40;63.40
52621;DHT22;38515;53.160;6.990;2023-11-19T00:08:05;10.10;11.70
52621;DHT22;38515;53.160;6.990;2023-11-19T00:10:32;10.40;1.00
52621;DHT22;38515;53.160;6.990;2023-11-19T00:12:57;10.50;1.00
52621;DHT22;38515;53.160;6.990;2023-11-19T00:15:23;10.60;1.00
52621;DHT22;38515;53.160;6.990;2023-11-19T00:17:50;10.70;1.00
52621;DHT22;38515;53.160;6.990;2023-11-19T00:20:20;10.50;1.00
52621;DHT22;38515;53.160;6.990;2023-11-19T00:22:48;10.80;11.90
52621;DHT22;38515;53.160;6.990;2023-11-19T00:25:20;10.50;1.00
52621;DHT22;38515;53.160;6.990;2023-11-19T00:27:51;10.60;1.00
52621;DHT22;38515;53.160;6.990;2023-11-19T00:30:19;10.90;99.90
52621;DHT22;38515;53.160;6.990;2023-11-19T00:32:45;11.00;99.90
52621;DHT22;38515;53.160;6.990;2023-11-19T00:35:11;10.80;99.90
52621;DHT22;38515;53.160;6.990;2023-11-19T00:37:39;10.70;99.90
52621;DHT22;38515;53.160;6.990;2023-11-19T00:40:06;10.80;99.90
52621;DHT22;38515;53.160;6.990;2023-11-19T00:42:32;10.80;99.90
52621;DHT22;38515;53.160;6.990;2023-11-19T00:44:58;10.80;99.90
52621;DHT22;38515;53.160;6.990;2023-11-19T00:47:24;11.10;99.90
52621;DHT22;38515;53.160;6.990;2023-11-19T00:49:49;11.10;99.90
52621;DHT22;38515;53.160;6.990;2023-11-19T00:52:16;11.00;99.90
52621;DHT22;38515;53.160;6.990;2023-11-19T00:54:43;11.20;99.90
52621;DHT22;38515;53.160;6.990;2023-11-19T00:57:09;11.00;99.90
52621;DHT22;38515;53.160;6.990;2023-11-19T00:59:35;11.00;99.90
52621;DHT22;38515;53.160;6.990;2023-11-19T01:02:00;11.30;99.90
52621;DHT22;38515;53.160;6.990;2023-11-19T01:04:35;11.30;99.90
52621;DHT22;38515;53.160;6.990;2023-11-19T01:07:02;11.10;99.90
52621;DHT22;38515;53.160;6.990;2023-11-19T01:09:30;11.30;99.90
52621;DHT22;38515;53.160;6.990;2023-11-19T01:11:58;11.40;99.90
52621;DHT22;38515;53.160;6.990;2023-11-19T01:14:26;11.40;99.90
52621;DHT22;38515;53.160;6.990;2023-11-19T01:16:52;11.10;99.90
52621;DHT22;38515;53.160;6.990;2023-11-19T01:19:19;11.20;99.90
52621;DHT22;38515;53.160;6.990;2023-11-19T01:21:45;11.50;99.90
52621;DHT22;38515;53.160;6.990;2023-11-19T01:24:11;11.20;99.90
52621;DHT22;38515;53.160;6.990;2023-11-19T01:26:38;11.50;99.90
52621;DHT22;38515;53.160;6.990;2023-11-19T01:29:04;11.60;99.90
52621;DHT22;38515;53.160;6.990;2023-11-19T01:31:30;11.50;1.00
52621;DHT22;38515;53.160;6.990;2023-11-19T01:33:59;11.80;1.00
52621;DHT22;38515;53.160;6.990;2023-11-19T01:36:25;11.80;1.00
52621;DHT22;38515;53.160;6.990;2023-11-19T01:38:51;11.60;1.00
52621;DHT22;38515;53.160;6.990;2023-11-19T01:41:16;11.80;1.00
52621;DHT22;38515;53.160;6.990;2023-11-19T01:43:42;12.00;1.00
52621;DHT22;38515;53.160;6.990;2023-11-19T01:46:08;12.00;1.00
52621;DHT22;38515;53.160;6.990;2023-11-19T01:48:42;12.00;1.00
52621;DHT22;38515;53.160;6.990;2023-11-19T01:51:09;12.00;1.00
52621;DHT22;38515;53.160;6.990;2023-11-19T01:53:37;12.00;1.00
52621;DHT22;38515;53.160;6.990;2023-11-19T01:56:04;12.10;1.00
52621;DHT22;38515;53.160;6.990;2023-11-19T01:58:31;12.10;99.90
52621;DHT22;38515;53.160;6.990;2023-11-19T02:00:57;11.90;1.00
52621;DHT22;38515;53.160;6.990;2023-11-19T02:03:24;12.10;99.90
52621;DHT22;38515;53.160;6.990;2023-11-19T02:05:52;12.00;99.90
52621;DHT22;38515;53.160;6.990;2023-11-19T02:08:18;12.20;99.90
52621;DHT22;38515;53.160;6.990;2023-11-19T02:10:45;12.20;99.90
52621;DHT22;38515;53.160;6.990;2023-11-19T02:13:11;12.20;99.90
52621;DHT22;38515;53.160;6.990;2023-11-19T02:15:40;12.20;99.90
52621;DHT22;38515;53.160;6.990;2023-11-19T02:18:28;12.20;99.90
52621;DHT22;38515;53.160;6.990;2023-11-19T02:20:57;12.20;99.90
52621;DHT22;38515;53.160;6.990;2023-11-19T02:23:26;12.30;99.90
52621;DHT22;38515;53.160;6.990;2023-11-19T02:28:19;12.30;62.00
52621;DHT22;38515;53.160;6.990;2023-11-19T02:30:45;12.20;1.00
52621;DHT22;38515;53.160;6.990;2023-11-19T02:33:11;12.00;1.00
52621;DHT22;38515;53.160;6.990;2023-11-19T02:35:38;12.00;1.00
52621;DHT22;38515;53.160;6.990;2023-11-19T02:38:06;12.00;1.00
52621;DHT22;38515;53.160;6.990;2023-11-19T02:40:32;12.10;1.00
52621;DHT22;38515;53.160;6.990;2023-11-19T02:42:58;12.10;1.00
52621;DHT22;38515;53.160;6.990;2023-11-19T02:45:25;12.10;1.00
52621;DHT22;38515;53.160;6.990;2023-11-19T02:47:52;12.20;1.00
52621;DHT22;38515;53.160;6.990;2023-11-19T02:50:21;12.20;1.00
52621;DHT22;38515;53.160;6.990;2023-11-19T02:52:56;12.30;1.00
52621;DHT22;38515;53.160;6.990;2023-11-19T02:55:23;12.30;1.00
52621;DHT22;38515;53.160;6.990;2023-11-19T02:57:50;12.30;1.00
52621;DHT22;38515;53.160;6.990;2023-11-19T03:00:19;12.20;99.90
52621;DHT22;38515;53.160;6.990;2023-11-19T03:02:49;12.40;99.90
52621;DHT22;38515;53.160;6.990;2023-11-19T03:05:24;12.20;99.90
52621;DHT22;38515;53.160;6.990;2023-11-19T03:07:50;12.30;99.90
52621;DHT22;38515;53.160;6.990;2023-11-19T03:10:16;12.30;1.00
52621;DHT22;38515;53.160;6.990;2023-11-19T03:12:43;12.20;1.00
52621;DHT22;38515;53.160;6.990;2023-11-19T03:15:09;12.30;1.00
52621;DHT22;38515;53.160;6.990;2023-11-19T03:17:39;12.20;1.00
52621;DHT22;38515;53.160;6.990;2023-11-19T03:20:07;12.30;1.00
52621;DHT22;38515;53.160;6.990;2023-11-19T03:22:36;12.30;1.00
52621;DHT22;38515;53.160;6.990;2023-11-19T03:25:02;12.40;1.00
52621;DHT22;38515;53.160;6.990;2023-11-19T03:27:28;12.30;1.00
52621;DHT22;38515;53.160;6.990;2023-11-19T03:29:54;12.30;48.20
52621;DHT22;38515;53.160;6.990;2023-11-19T03:32:20;12.30;55.70
52621;DHT22;38515;53.160;6.990;2023-11-19T03:34:45;12.30;12.00
52621;DHT22;38515;53.160;6.990;2023-11-19T03:37:11;12.40;27.80
52621;DHT22;38515;53.160;6.990;2023-11-19T03:39:38;12.30;31.40
52621;DHT22;38515;53.160;6.990;2023-11-19T03:42:04;12.30;65.00
52621;DHT22;38515;53.160;6.990;2023-11-19T03:44:30;12.30;99.90
52621;DHT22;38515;53.160;6.990;2023-11-19T03:46:56;12.30;99.90
52621;DHT22;38515;53.160;6.990;2023-11-19T03:49:22;12.30;99.90
52621;DHT22;38515;53.160;6.990;2023-11-19T03:51:49;12.30;99.90
52621;DHT22;38515;53.160;6.990;2023-11-19T03:54:15;12.30;99.90
52621;DHT22;38515;53.160;6.990;2023-11-19T03:56:41;12.20;99.90
52621;DHT22;38515;53.160;6.990;2023-11-19T03:59:06;12.20;99.90
52621;DHT22;38515;53.160;6.990;2023-11-19T04:01:33;12.20;99.90
52621;DHT22;38515;53.160;6.990;2023-11-19T04:03:59;12.20;99.90
52621;DHT22;38515;53.160;6.990;2023-11-19T04:06:26;12.30;99.90
52621;DHT22;38515;53.160;6.990;2023-11-19T04:08:51;12.20;99.90
52621;DHT22;38515;53.160;6.990;2023-11-19T04:11:17;12.30;99.90
52621;DHT22;38515;53.160;6.990;2023-11-19T04:13:43;12.30;99.90
52621;DHT22;38515;53.160;6.990;2023-11-19T04:16:09;12.30;99.90
52621;DHT22;38515;53.160;6.990;2023-11-19T04:18:35;12.40;99.90
52621;DHT22;38515;53.160;6.990;2023-11-19T04:21:01;12.40;99.90
52621;DHT22;38515;53.160;6.990;2023-11-19T04:23:27;12.40;99.90
52621;DHT22;38515;53.160;6.990;2023-11-19T04:25:53;12.40;99.90
52621;DHT22;38515;53.160;6.990;2023-11-19T04:28:18;12.30;99.90
52621;DHT22;38515;53.160;6.990;2023-11-19T04:30:44;12.40;99.90
52621;DHT22;38515;53.160;6.990;2023-11-19T04:33:11;12.40;99.90
52621;DHT22;38515;53.160;6.990;2023-11-19T04:35:36;12.30;99.90
52621;DHT22;38515;53.160;6.990;2023-11-19T04:38:02;12.30;99.90
52621;DHT22;38515;53.160;6.990;2023-11-19T04:40:28;12.30;99.90
52621;DHT22;38515;53.160;6.990;2023-11-19T04:42:54;12.30;84.90
52621;DHT22;38515;53.160;6.990;2023-11-19T04:45:20;12.30;89.30
52621;DHT22;38515;53.160;6.990;2023-11-19T04:47:45;12.30;41.00
52621;DHT22;38515;53.160;6.990;2023-11-19T04:50:11;12.20;16.00
52621;DHT22;38515;53.160;6.990;2023-11-19T04:52:38;12.20;30.30
52621;DHT22;38515;53.160;6.990;2023-11-19T04:55:08;12.20;1.00
52621;DHT22;38515;53.160;6.990;2023-11-19T04:57:37;12.10;1.00
52621;DHT22;38515;53.160;6.990;2023-11-19T05:00:04;12.20;1.00
52621;DHT22;38515;53.160;6.990;2023-11-19T05:02:30;12.10;1.00
52621;DHT22;38515;53.160;6.990;2023-11-19T05:04:57;12.10;1.00
52621;DHT22;38515;53.160;6.990;2023-11-19T05:07:22;12.10;1.00
52621;DHT22;38515;53.160;6.990;2023-11-19T05:09:48;12.00;1.00
52621;DHT22;38515;53.160;6.990;2023-11-19T05:12:14;12.00;99.90
52621;DHT22;38515;53.160;6.990;2023-11-19T05:14:40;11.90;99.90
52621;DHT22;38515;53.160;6.990;2023-11-19T05:17:06;12.00;99.90
52621;DHT22;38515;53.160;6.990;2023-11-19T05:19:33;11.90;99.90
52621;DHT22;38515;53.160;6.990;2023-11-19T05:21:59;11.90;99.90
52621;DHT22;38515;53.160;6.990;2023-11-19T05:24:24;11.90;99.90
52621;DHT22;38515;53.160;6.990;2023-11-19T05:26:51;11.90;99.90
52621;DHT22;38515;53.160;6.990;2023-11-19T05:29:17;11.80;99.90
52621;DHT22;38515;53.160;6.990;2023-11-19T05:31:43;11.90;99.90
52621;DHT22;38515;53.160;6.990;2023-11-19T05:34:09;11.80;99.90
52621;DHT22;38515;53.160;6.990;2023-11-19T05:36:34;11.90;99.90
52621;DHT22;38515;53.160;6.990;2023-11-19T05:39:00;11.90;99.90
52621;DHT22;38515;53.160;6.990;2023-11-19T05:41:26;11.80;99.90
52621;DHT22;38515;53.160;6.990;2023-11-19T05:43:52;11.80;99.90
52621;DHT22;38515;53.160;6.990;2023-11-19T05:46:18;11.80;58.50
52621;DHT22;38515;53.160;6.990;2023-11-19T05:48:44;11.90;1.00
52621;DHT22;38515;53.160;6.990;2023-11-19T05:51:12;11.80;1.00
52621;DHT22;38515;53.160;6.990;2023-11-19T05:53:46;11.80;1.00
52621;DHT22;38515;53.160;6.990;2023-11-19T05:56:21;11.70;99.90
52621;DHT22;38515;53.160;6.990;2023-11-19T05:58:50;11.70;99.90
52621;DHT22;38515;53.160;6.990;2023-11-19T06:01:16;11.70;99.90
52621;DHT22;38515;53.160;6.990;2023-11-19T06:03:42;11.80;23.10
52621;DHT22;38515;53.160;6.990;2023-11-19T06:06:09;11.70;99.90
52621;DHT22;38515;53.160;6.990;2023-11-19T06:08:35;11.70;60.00
52621;DHT22;38515;53.160;6.990;2023-11-19T06:11:03;11.60;1.00
52621;DHT22;38515;53.160;6.990;2023-11-19T06:13:36;11.70;1.00
52621;DHT22;38515;53.160;6.990;2023-11-19T06:16:05;11.70;1.00
52621;DHT22;38515;53.160;6.990;2023-11-19T06:18:31;11.70;1.00
52621;DHT22;38515;53.160;6.990;2023-11-19T06:20:57;11.60;99.90
52621;DHT22;38515;53.160;6.990;2023-11-19T06:23:23;11.60;99.90
52621;DHT22;38515;53.160;6.990;2023-11-19T06:25:52;11.60;99.90
52621;DHT22;38515;53.160;6.990;2023-11-19T06:28:18;11.60;99.90
52621;DHT22;38515;53.160;6.990;2023-11-19T06:30:44;11.60;99.90
52621;DHT22;38515;53.160;6.990;2023-11-19T06:33:14;11.50;99.90
52621;DHT22;38515;53.160;6.990;2023-11-19T06:35:40;11.60;99.90
52621;DHT22;38515;53.160;6.990;2023-11-19T06:38:06;11.60;49.80
52621;DHT22;38515;53.160;6.990;2023-11-19T06:40:35;11.60;8.80
52621;DHT22;38515;53.160;6.990;2023-11-19T06:43:01;11.60;99.90
52621;DHT22;38515;53.160;6.990;2023-11-19T06:45:29;11.50;1.00
52621;DHT22;38515;53.160;6.990;2023-11-19T06:47:55;11.50;99.90
52621;DHT22;38515;53.160;6.990;2023-11-19T06:50:21;11.50;99.90
52621;DHT22;38515;53.160;6.990;2023-11-19T06:52:47;11.40;99.90
52621;DHT22;38515;53.160;6.990;2023-11-19T06:55:13;11.30;99.90
52621;DHT22;38515;53.160;6.990;2023-11-19T06:57:39;11.30;21.50
52621;DHT22;38515;53.160;6.990;2023-11-19T07:00:06;11.30;34.00
52621;DHT22;38515;53.160;6.990;2023-11-19T07:02:32;11.30;1.00
52621;DHT22;38515;53.160;6.990;2023-11-19T07:04:58;11.30;1.00
52621;DHT22;38515;53.160;6.990;2023-11-19T07:07:24;11.20;1.00
52621;DHT22;38515;53.160;6.990;2023-11-19T07:09:50;11.20;1.00
52621;DHT22;38515;53.160;6.990;2023-11-19T07:12:16;11.20;1.00
52621;DHT22;38515;53.160;6.990;2023-11-19T07:14:42;11.20;99.90
52621;DHT22;38515;53.160;6.990;2023-11-19T07:17:08;11.10;99.90
52621;DHT22;38515;53.160;6.990;2023-11-19T07:19:36;11.10;99.90
52621;DHT22;38515;53.160;6.990;2023-11-19T07:22:03;11.10;99.90
52621;DHT22;38515;53.160;6.990;2023-11-19T07:24:29;11.00;96.40
52621;DHT22;38515;53.160;6.990;2023-11-19T07:26:58;11.00;43.20
52621;DHT22;38515;53.160;6.990;2023-11-19T07:29:24;11.00;99.40
52621;DHT22;38515;53.160;6.990;2023-11-19T07:31:50;11.00;67.90
52621;DHT22;38515;53.160;6.990;2023-11-19T07:34:16;11.10;71.20
52621;DHT22;38515;53.160;6.990;2023-11-19T07:36:42;11.10;99.90
52621;DHT22;38515;53.160;6.990;2023-11-19T07:39:08;11.10;74.20
52621;DHT22;38515;53.160;6.990;2023-11-19T07:41:34;11.10;72.00
52621;DHT22;38515;53.160;6.990;2023-11-19T07:44:00;11.10;99.90
52621;DHT22;38515;53.160;6.990;2023-11-19T07:46:26;11.10;99.90
52621;DHT22;38515;53.160;6.990;2023-11-19T07:48:53;11.10;99.90
52621;DHT22;38515;53.160;6.990;2023-11-19T07:51:18;11.10;49.20
52621;DHT22;38515;53.160;6.990;2023-11-19T07:53:44;11.20;99.90
52621;DHT22;38515;53.160;6.990;2023-11-19T07:56:10;11.20;66.40
52621;DHT22;38515;53.160;6.990;2023-11-19T07:58:36;11.20;99.90
52621;DHT22;38515;53.160;6.990;2023-11-19T08:01:02;11.20;99.90
52621;DHT22;38515;53.160;6.990;2023-11-19T08:03:28;11.10;99.90
52621;DHT22;38515;53.160;6.990;2023-11-19T08:05:58;11.20;99.90
52621;DHT22;38515;53.160;6.990;2023-11-19T08:08:24;11.20;1.00
52621;DHT22;38515;53.160;6.990;2023-11-19T08:10:50;11.10;1.00
52621;DHT22;38515;53.160;6.990;2023-11-19T08:13:20;11.10;1.00
52621;DHT22;38515;53.160;6.990;2023-11-19T08:15:46;11.20;1.00
52621;DHT22;38515;53.160;6.990;2023-11-19T08:18:12;10.50;1.00
52621;DHT22;38515;53.160;6.990;2023-11-19T08:20:39;11.30;1.00
52621;DHT22;38515;53.160;6.990;2023-11-19T08:23:04;11.40;1.00
52621;DHT22;38515;53.160;6.990;2023-11-19T08:25:31;11.40;99.90
52621;DHT22;38515;53.160;6.990;2023-11-19T08:27:57;11.40;99.90
52621;DHT22;38515;53.160;6.990;2023-11-19T08:30:23;11.40;99.90
52621;DHT22;38515;53.160;6.990;2023-11-19T08:32:49;11.40;59.40
52621;DHT22;38515;53.160;6.990;2023-11-19T08:35:15;11.40;1.00
52621;DHT22;38515;53.160;6.990;2023-11-19T08:37:41;11.40;1.00
52621;DHT22;38515;53.160;6.990;2023-11-19T08:40:08;11.40;1.00
52621;DHT22;38515;53.160;6.990;2023-11-19T08:42:37;11.40;1.00
52621;DHT22;38515;53.160;6.990;2023-11-19T08:45:05;11.40;5.60
52621;DHT22;38515;53.160;6.990;2023-11-19T08:47:31;11.40;1.00
52621;DHT22;38515;53.160;6.990;2023-11-19T08:49:57;11.50;1.00
52621;DHT22;38515;53.160;6.990;2023-11-19T08:52:23;11.50;1.00
52621;DHT22;38515;53.160;6.990;2023-11-19T08:54:51;11.60;1.00
52621;DHT22;38515;53.160;6.990;2023-11-19T08:57:17;11.60;1.00
52621;DHT22;38515;53.160;6.990;2023-11-19T08:59:43;11.60;1.00
52621;DHT22;38515;53.160;6.990;2023-11-19T09:02:09;11.60;99.90
52621;DHT22;38515;53.160;6.990;2023-11-19T09:04:35;11.50;99.90
52621;DHT22;38515;53.160;6.990;2023-11-19T09:07:01;11.50;99.90
52621;DHT22;38515;53.160;6.990;2023-11-19T09:09:29;11.50;99.90
52621;DHT22;38515;53.160;6.990;2023-11-19T09:11:58;11.50;99.90
52621;DHT22;38515;53.160;6.990;2023-11-19T09:14:24;11.50;1.00
52621;DHT22;38515;53.160;6.990;2023-11-19T09:16:52;11.50;99.90
52621;DHT22;38515;53.160;6.990;2023-11-19T09:19:18;11.60;99.90
52621;DHT22;38515;53.160;6.990;2023-11-19T09:21:44;11.60;99.90
52621;DHT22;38515;53.160;6.990;2023-11-19T09:24:10;11.60;99.90
52621;DHT22;38515;53.160;6.990;2023-11-19T09:26:36;11.70;99.90
52621;DHT22;38515;53.160;6.990;2023-11-19T09:29:02;11.70;99.90
52621;DHT22;38515;53.160;6.990;2023-11-19T09:31:28;11.80;99.90
52621;DHT22;38515;53.160;6.990;2023-11-19T09:33:53;11.80;99.90
52621;DHT22;38515;53.160;6.990;2023-11-19T09:36:19;11.80;99.90
52621;DHT22;38515;53.160;6.990;2023-11-19T09:38:45;11.90;99.90
52621;DHT22;38515;53.160;6.990;2023-11-19T09:41:11;11.90;99.90
52621;DHT22;38515;53.160;6.990;2023-11-19T09:43:42;12.00;99.90
52621;DHT22;38515;53.160;6.990;2023-11-19T09:46:13;12.00;99.90
52621;DHT22;38515;53.160;6.990;2023-11-19T09:48:41;12.00;99.90
52621;DHT22;38515;53.160;6.990;2023-11-19T09:51:09;12.10;99.90
52621;DHT22;38515;53.160;6.990;2023-11-19T09:53:36;12.20;99.90
52621;DHT22;38515;53.160;6.990;2023-11-19T09:56:05;12.30;99.90
52621;DHT22;38515;53.160;6.990;2023-11-19T09:58:32;12.20;99.90
52621;DHT22;38515;53.160;6.990;2023-11-19T10:00:59;12.20;54.70
52621;DHT22;38515;53.160;6.990;2023-11-19T10:03:35;12.10;99.90
52621;DHT22;38515;53.160;6.990;2023-11-19T10:06:04;12.10;52.60
52621;DHT22;38515;53.160;6.990;2023-11-19T10:08:32;12.10;1.00
52621;DHT22;38515;53.160;6.990;2023-11-19T10:10:58;12.20;1.00
52621;DHT22;38515;53.160;6.990;2023-11-19T10:13:31;12.20;1.00
52621;DHT22;38515;53.160;6.990;2023-11-19T10:15:57;12.30;1.00
52621;DHT22;38515;53.160;6.990;2023-11-19T10:18:26;12.30;1.00
52621;DHT22;38515;53.160;6.990;2023-11-19T10:20:53;12.40;1.00
52621;DHT22;38515;53.160;6.990;2023-11-19T10:23:20;12.50;1.00
52621;DHT22;38515;53.160;6.990;2023-11-19T10:25:46;12.60;1.00
52621;DHT22;38515;53.160;6.990;2023-11-19T10:28:15;12.60;99.90
52621;DHT22;38515;53.160;6.990;2023-11-19T10:30:42;12.60;99.90
52621;DHT22;38515;53.160;6.990;2023-11-19T10:33:10;12.40;99.90
52621;DHT22;38515;53.160;6.990;2023-11-19T10:35:51;12.30;99.90
52621;DHT22;38515;53.160;6.990;2023-11-19T10:38:18;12.20;99.90
52621;DHT22;38515;53.160;6.990;2023-11-19T10:40:44;12.10;99.90
52621;DHT22;38515;53.160;6.990;2023-11-19T10:43:11;12.00;99.90
52621;DHT22;38515;53.160;6.990;2023-11-19T10:45:38;12.00;99.90
52621;DHT22;38515;53.160;6.990;2023-11-19T10:48:05;11.90;99.90
52621;DHT22;38515;53.160;6.990;2023-11-19T10:50:34;11.80;99.90
52621;DHT22;38515;53.160;6.990;2023-11-19T10:53:02;11.70;1.00
52621;DHT22;38515;53.160;6.990;2023-11-19T10:55:30;11.70;1.00
52621;DHT22;38515;53.160;6.990;2023-11-19T10:58:04;11.70;1.00
52621;DHT22;38515;53.160;6.990;2023-11-19T11:00:44;11.60;59.60
52621;DHT22;38515;53.160;6.990;2023-11-19T11:05:41;11.60;99.90
52621;DHT22;38515;53.160;6.990;2023-11-19T11:08:08;11.50;89.40
52621;DHT22;38515;53.160;6.990;2023-11-19T11:13:13;11.40;99.90
52621;DHT22;38515;53.160;6.990;2023-11-19T11:15:39;11.40;99.90
52621;DHT22;38515;53.160;6.990;2023-11-19T11:18:09;11.50;99.90
52621;DHT22;38515;53.160;6.990;2023-11-19T11:20:35;11.50;99.90
52621;DHT22;38515;53.160;6.990;2023-11-19T11:36:26;11.80;41.00
52621;DHT22;38515;53.160;6.990;2023-11-19T11:38:53;12.00;81.40
52621;DHT22;38515;53.160;6.990;2023-11-19T11:41:24;12.10;17.80
52621;DHT22;38515;53.160;6.990;2023-11-19T11:43:52;12.20;1.00
52621;DHT22;38515;53.160;6.990;2023-11-19T11:49:07;12.20;99.90
52621;DHT22;38515;53.160;6.990;2023-11-19T11:54:11;12.10;99.90
52621;DHT22;38515;53.160;6.990;2023-11-19T11:57:13;12.10;99.90
52621;DHT22;38515;53.160;6.990;2023-11-19T12:02:21;12.10;99.90
52621;DHT22;38515;53.160;6.990;2023-11-19T12:04:51;12.00;99.90
52621;DHT22;38515;53.160;6.990;2023-11-19T12:07:23;12.00;99.90
52621;DHT22;38515;53.160;6.990;2023-11-19T12:09:52;12.00;99.90
52621;DHT22;38515;53.160;6.990;2023-11-19T12:15:08;12.00;99.90
52621;DHT22;38515;53.160;6.990;2023-11-19T12:17:43;12.00;1.00
52621;DHT22;38515;53.160;6.990;2023-11-19T12:20:15;12.00;1.00
52621;DHT22;38515;53.160;6.990;2023-11-19T12:22:43;12.10;1.00
52621;DHT22;38515;53.160;6.990;2023-11-19T12:25:11;12.00;99.90
52621;DHT22;38515;53.160;6.990;2023-11-19T12:27:43;12.00;99.90
52621;DHT22;38515;53.160;6.990;2023-11-19T12:30:12;11.80;99.90
52621;DHT22;38515;53.160;6.990;2023-11-19T12:32:44;11.80;99.90
52621;DHT22;38515;53.160;6.990;2023-11-19T12:35:10;11.80;1.00
52621;DHT22;38515;53.160;6.990;2023-11-19T12:37:43;11.90;1.00
52621;DHT22;38515;53.160;6.990;2023-11-19T12:40:22;12.00;76.80
52621;DHT22;38515;53.160;6.990;2023-11-19T12:42:50;12.20;99.90
52621;DHT22;38515;53.160;6.990;2023-11-19T12:45:17;12.20;99.90
52621;DHT22;38515;53.160;6.990;2023-11-19T12:47:45;12.30;99.60
52621;DHT22;38515;53.160;6.990;2023-11-19T12:50:13;12.20;1.00
52621;DHT22;38515;53.160;6.990;2023-11-19T12:52:39;12.30;1.00
52621;DHT22;38515;53.160;6.990;2023-11-19T12:55:27;12.20;1.00
52621;DHT22;38515;53.160;6.990;2023-11-19T12:57:53;12.20;3.60
52621;DHT22;38515;53.160;6.990;2023-11-19T13:00:24;12.30;1.00
52621;DHT22;38515;53.160;6.990;2023-11-19T13:02:54;12.30;1.00
52621;DHT22;38515;53.160;6.990;2023-11-19T13:05:22;12.20;1.00
52621;DHT22;38515;53.160;6.990;2023-11-19T13:07:50;12.20;1.00
52621;DHT22;38515;53.160;6.990;2023-11-19T13:10:16;12.10;1.00
52621;DHT22;38515;53.160;6.990;2023-11-19T13:12:42;12.00;1.00
52621;DHT22;38515;53.160;6.990;2023-11-19T13:15:24;12.00;1.00
52621;DHT22;38515;53.160;6.990;2023-11-19T13:17:50;11.90;5.00
52621;DHT22;38515;53.160;6.990;2023-11-19T13:20:16;11.90;1.00
52621;DHT22;38515;53.160;6.990;2023-11-19T13:23:02;11.90;1.00
52621;DHT22;38515;53.160;6.990;2023-11-19T13:25:29;11.90;65.30
52621;DHT22;38515;53.160;6.990;2023-11-19T13:27:55;12.00;1.00
52621;DHT22;38515;53.160;6.990;2023-11-19T13:30:25;12.00;1.00
52621;DHT22;38515;53.160;6.990;2023-11-19T13:32:51;12.00;71.00
52621;DHT22;38515;53.160;6.990;2023-11-19T13:35:18;12.10;79.50
52621;DHT22;38515;53.160;6.990;2023-11-19T13:37:45;12.00;70.80
52621;DHT22;38515;53.160;6.990;2023-11-19T13:40:12;12.00;96.50
52621;DHT22;38515;53.160;6.990;2023-11-19T13:42:42;12.00;61.50
52621;DHT22;38515;53.160;6.990;2023-11-19T13:45:11;12.00;58.40
52621;DHT22;38515;53.160;6.990;2023-11-19T13:47:47;12.00;21.70
52621;DHT22;38515;53.160;6.990;2023-11-19T13:50:14;12.10;1.00
52621;DHT22;38515;53.160;6.990;2023-11-19T13:52:43;12.00;1.00
52621;DHT22;38515;53.160;6.990;2023-11-19T13:55:11;12.00;1.00
52621;DHT22;38515;53.160;6.990;2023-11-19T13:57:40;11.90;1.00
52621;DHT22;38515;53.160;6.990;2023-11-19T14:00:08;12.00;1.00
52621;DHT22;38515;53.160;6.990;2023-11-19T14:02:48;11.80;1.00
52621;DHT22;38515;53.160;6.990;2023-11-19T14:05:14;11.80;1.00
52621;DHT22;38515;53.160;6.990;2023-11-19T14:07:43;11.80;1.00
52621;DHT22;38515;53.160;6.990;2023-11-19T14:10:09;11.80;1.00
52621;DHT22;38515;53.160;6.990;2023-11-19T14:12:40;11.80;1.00
52621;DHT22;38515;53.160;6.990;2023-11-19T14:15:08;11.90;1.00
52621;DHT22;38515;53.160;6.990;2023-11-19T14:17:36;11.80;1.00
52621;DHT22;38515;53.160;6.990;2023-11-19T14:20:02;11.80;1.00
52621;DHT22;38515;53.160;6.990;2023-11-19T14:22:45;11.80;1.00
52621;DHT22;38515;53.160;6.990;2023-11-19T14:25:16;11.60;1.00
52621;DHT22;38515;53.160;6.990;2023-11-19T14:27:43;11.60;1.00
52621;DHT22;38515;53.160;6.990;2023-11-19T14:30:11;11.60;1.00
52621;DHT22;38515;53.160;6.990;2023-11-19T14:32:38;11.60;1.00
52621;DHT22;38515;53.160;6.990;2023-11-19T14:35:04;11.50;1.00
52621;DHT22;38515;53.160;6.990;2023-11-19T14:37:30;11.50;1.00
52621;DHT22;38515;53.160;6.990;2023-11-19T14:39:56;11.50;1.00
52621;DHT22;38515;53.160;6.990;2023-11-19T14:42:23;11.40;1.00
52621;DHT22;38515;53.160;6.990;2023-11-19T14:44:51;11.50;1.00
52621;DHT22;38515;53.160;6.990;2023-11-19T14:47:21;11.40;1.00
52621;DHT22;38515;53.160;6.990;2023-11-19T14:49:47;11.40;1.00
52621;DHT22;38515;53.160;6.990;2023-11-19T14:52:13;11.30;1.00
52621;DHT22;38515;53.160;6.990;2023-11-19T14:54:39;11.40;1.00
52621;DHT22;38515;53.160;6.990;2023-11-19T14:57:05;11.40;1.00
52621;DHT22;38515;53.160;6.990;2023-11-19T14:59:36;11.30;1.00
52621;DHT22;38515;53.160;6.990;2023-11-19T15:02:02;11.30;28.90
52621;DHT22;38515;53.160;6.990;2023-11-19T15:04:29;11.30;82.80
52621;DHT22;38515;53.160;6.990;2023-11-19T15:06:58;11.30;99.90
52621;DHT22;38515;53.160;6.990;2023-11-19T15:09:25;11.20;99.90
52621;DHT22;38515;53.160;6.990;2023-11-19T15:11:54;11.20;99.90
52621;DHT22;38515;53.160;6.990;2023-11-19T15:14:21;11.20;99.90
52621;DHT22;38515;53.160;6.990;2023-11-19T15:16:48;11.10;99.90
52621;DHT22;38515;53.160;6.990;2023-11-19T15:19:17;11.20;99.90
52621;DHT22;38515;53.160;6.990;2023-11-19T15:21:43;11.20;99.90
52621;DHT22;38515;53.160;6.990;2023-11-19T15:24:09;11.20;99.90
52621;DHT22;38515;53.160;6.990;2023-11-19T15:26:37;11.20;99.90
52621;DHT22;38515;53.160;6.990;2023-11-19T15:29:04;11.20;99.90
52621;DHT22;38515;53.160;6.990;2023-11-19T15:31:30;11.20;99.90
52621;DHT22;38515;53.160;6.990;2023-11-19T15:33:59;11.10;99.90
52621;DHT22;38515;53.160;6.990;2023-11-19T15:36:25;11.20;99.90
52621;DHT22;38515;53.160;6.990;2023-11-19T15:38:51;11.20;99.90
52621;DHT22;38515;53.160;6.990;2023-11-19T15:41:17;11.10;1.00
52621;DHT22;38515;53.160;6.990;2023-11-19T15:43:43;11.20;1.00
52621;DHT22;38515;53.160;6.990;2023-11-19T15:46:09;11.10;1.00
52621;DHT22;38515;53.160;6.990;2023-11-19T15:48:36;11.10;1.00
52621;DHT22;38515;53.160;6.990;2023-11-19T15:51:03;11.20;1.00
52621;DHT22;38515;53.160;6.990;2023-11-19T15:53:29;11.10;99.90
52621;DHT22;38515;53.160;6.990;2023-11-19T15:55:59;11.10;99.90
52621;DHT22;38515;53.160;6.990;2023-11-19T15:58:25;11.10;99.90
52621;DHT22;38515;53.160;6.990;2023-11-19T16:00:51;11.10;99.90
52621;DHT22;38515;53.160;6.990;2023-11-19T16:03:17;11.10;99.90
52621;DHT22;38515;53.160;6.990;2023-11-19T16:05:43;11.10;99.90
52621;DHT22;38515;53.160;6.990;2023-11-19T16:08:09;11.00;89.90
52621;DHT22;38515;53.160;6.990;2023-11-19T16:10:36;11.00;99.90